sensor_id;sensor_type;location;lat;lon;timestamp;P1;durP1;ratioP1;P2;durP2;ratioP2
55172;SDS011;41061;52.822;6.860;2023-10-19T00:01:13;24.85;;;15.73;;
55172;SDS011;41061;52.822;6.860;2023-10-19T00:03:40;22.13;;;15.82;;
55172;SDS011;41061;52.822;6.860;2023-10-19T00:06:06;24.38;;;15.80;;
55172;SDS011;41061;52.822;6.860;2023-10-19T00:08:32;24.40;;;16.08;;
55172;SDS011;41061;52.822;6.860;2023-10-19T00:11:07;26.20;;;17.30;;
55172;SDS011;41061;52.822;6.860;2023-10-19T00:13:38;25.73;;;16.48;;
55172;SDS011;41061;52.822;6.860;2023-10-19T00:16:05;23.60;;;15.88;;
55172;SDS011;41061;52.822;6.860;2023-10-19T00:18:45;29.45;;;17.13;;
55172;SDS011;41061;52.822;6.860;2023-10-19T00:21:18;27.42;;;17.63;;
55172;SDS011;41061;52.822;6.860;2023-10-19T00:23:54;27.52;;;17.02;;
55172;SDS011;41061;52.822;6.860;2023-10-19T00:26:22;26.10;;;16.75;;
55172;SDS011;41061;52.822;6.860;2023-10-19T00:28:54;24.20;;;17.20;;
55172;SDS011;41061;52.822;6.860;2023-10-19T00:31:23;30.05;;;17.70;;
55172;SDS011;41061;52.822;6.860;2023-10-19T00:33:53;25.10;;;17.48;;
55172;SDS011;41061;52.822;6.860;2023-10-19T00:36:20;32.47;;;17.15;;
55172;SDS011;41061;52.822;6.860;2023-10-19T00:38:47;27.08;;;16.88;;
55172;SDS011;41061;52.822;6.860;2023-10-19T00:41:21;25.85;;;17.48;;
55172;SDS011;41061;52.822;6.860;2023-10-19T00:43:54;24.63;;;17.38;;
55172;SDS011;41061;52.822;6.860;2023-10-19T00:46:36;25.40;;;18.08;;
55172;SDS011;41061;52.822;6.860;2023-10-19T00:49:11;27.75;;;18.15;;
55172;SDS011;41061;52.822;6.860;2023-10-19T00:51:44;30.05;;;17.48;;
55172;SDS011;41061;52.822;6.860;2023-10-19T00:54:35;26.58;;;18.30;;
55172;SDS011;41061;52.822;6.860;2023-10-19T00:57:16;27.38;;;17.95;;
55172;SDS011;41061;52.822;6.860;2023-10-19T00:59:48;26.10;;;18.23;;
55172;SDS011;41061;52.822;6.860;2023-10-19T01:02:25;28.13;;;18.15;;
55172;SDS011;41061;52.822;6.860;2023-10-19T01:04:55;26.98;;;18.20;;
55172;SDS011;41061;52.822;6.860;2023-10-19T01:07:25;27.88;;;19.20;;
55172;SDS011;41061;52.822;6.860;2023-10-19T01:09:56;30.65;;;18.65;;
55172;SDS011;41061;52.822;6.860;2023-10-19T01:12:24;32.72;;;20.55;;
55172;SDS011;41061;52.822;6.860;2023-10-19T01:15:00;28.38;;;18.60;;
55172;SDS011;41061;52.822;6.860;2023-10-19T01:17:51;29.55;;;19.67;;
55172;SDS011;41061;52.822;6.860;2023-10-19T01:20:24;30.60;;;19.67;;
55172;SDS011;41061;52.822;6.860;2023-10-19T01:28:08;29.90;;;18.42;;
55172;SDS011;41061;52.822;6.860;2023-10-19T01:30:35;27.77;;;18.33;;
55172;SDS011;41061;52.822;6.860;2023-10-19T01:33:05;32.22;;;19.00;;
55172;SDS011;41061;52.822;6.860;2023-10-19T01:35:38;29.27;;;19.15;;
55172;SDS011;41061;52.822;6.860;2023-10-19T01:38:23;30.08;;;18.58;;
55172;SDS011;41061;52.822;6.860;2023-10-19T01:40:49;31.33;;;18.08;;
55172;SDS011;41061;52.822;6.860;2023-10-19T01:43:16;33.17;;;19.42;;
55172;SDS011;41061;52.822;6.860;2023-10-19T01:45:47;30.25;;;19.23;;
55172;SDS011;41061;52.822;6.860;2023-10-19T01:48:13;33.25;;;19.23;;
55172;SDS011;41061;52.822;6.860;2023-10-19T01:50:40;30.10;;;18.88;;
55172;SDS011;41061;52.822;6.860;2023-10-19T01:53:06;34.63;;;19.25;;
55172;SDS011;41061;52.822;6.860;2023-10-19T01:55:44;28.05;;;18.38;;
55172;SDS011;41061;52.822;6.860;2023-10-19T01:58:12;27.35;;;17.77;;
55172;SDS011;41061;52.822;6.860;2023-10-19T02:00:39;30.70;;;19.83;;
55172;SDS011;41061;52.822;6.860;2023-10-19T02:03:08;29.45;;;18.95;;
55172;SDS011;41061;52.822;6.860;2023-10-19T02:05:34;31.40;;;19.70;;
55172;SDS011;41061;52.822;6.860;2023-10-19T02:08:08;28.92;;;18.55;;
55172;SDS011;41061;52.822;6.860;2023-10-19T02:10:34;27.30;;;18.13;;
55172;SDS011;41061;52.822;6.860;2023-10-19T02:13:00;28.17;;;18.10;;
55172;SDS011;41061;52.822;6.860;2023-10-19T02:15:32;30.48;;;19.45;;
55172;SDS011;41061;52.822;6.860;2023-10-19T02:18:00;27.55;;;17.65;;
55172;SDS011;41061;52.822;6.860;2023-10-19T02:20:27;24.38;;;17.40;;
55172;SDS011;41061;52.822;6.860;2023-10-19T02:22:54;29.15;;;17.42;;
55172;SDS011;41061;52.822;6.860;2023-10-19T02:25:25;25.15;;;16.30;;
55172;SDS011;41061;52.822;6.860;2023-10-19T02:27:53;24.15;;;15.77;;
55172;SDS011;41061;52.822;6.860;2023-10-19T02:30:19;23.38;;;16.15;;
55172;SDS011;41061;52.822;6.860;2023-10-19T02:32:45;24.45;;;15.57;;
55172;SDS011;41061;52.822;6.860;2023-10-19T02:35:13;27.40;;;16.63;;
55172;SDS011;41061;52.822;6.860;2023-10-19T02:37:40;23.25;;;15.95;;
55172;SDS011;41061;52.822;6.860;2023-10-19T02:40:05;29.92;;;17.13;;
55172;SDS011;41061;52.822;6.860;2023-10-19T02:42:44;24.25;;;16.58;;
55172;SDS011;41061;52.822;6.860;2023-10-19T02:45:13;25.45;;;16.42;;
55172;SDS011;41061;52.822;6.860;2023-10-19T02:47:43;23.27;;;15.20;;
55172;SDS011;41061;52.822;6.860;2023-10-19T02:50:10;27.27;;;16.70;;
55172;SDS011;41061;52.822;6.860;2023-10-19T02:52:41;25.25;;;15.60;;
55172;SDS011;41061;52.822;6.860;2023-10-19T02:55:08;22.77;;;15.70;;
55172;SDS011;41061;52.822;6.860;2023-10-19T02:57:35;23.95;;;16.10;;
55172;SDS011;41061;52.822;6.860;2023-10-19T03:00:04;24.73;;;15.63;;
55172;SDS011;41061;52.822;6.860;2023-10-19T03:02:38;21.75;;;15.52;;
55172;SDS011;41061;52.822;6.860;2023-10-19T03:05:04;24.63;;;15.18;;
55172;SDS011;41061;52.822;6.860;2023-10-19T03:07:40;23.70;;;15.60;;
55172;SDS011;41061;52.822;6.860;2023-10-19T03:10:08;25.48;;;15.95;;
55172;SDS011;41061;52.822;6.860;2023-10-19T03:12:55;22.20;;;15.07;;
55172;SDS011;41061;52.822;6.860;2023-10-19T03:15:22;20.70;;;15.05;;
55172;SDS011;41061;52.822;6.860;2023-10-19T03:17:48;23.23;;;14.60;;
55172;SDS011;41061;52.822;6.860;2023-10-19T03:20:14;20.70;;;13.43;;
55172;SDS011;41061;52.822;6.860;2023-10-19T03:22:43;21.90;;;14.95;;
55172;SDS011;41061;52.822;6.860;2023-10-19T03:25:11;20.25;;;14.00;;
55172;SDS011;41061;52.822;6.860;2023-10-19T03:27:56;22.75;;;14.18;;
55172;SDS011;41061;52.822;6.860;2023-10-19T03:30:30;22.27;;;14.15;;
55172;SDS011;41061;52.822;6.860;2023-10-19T03:32:56;22.20;;;14.60;;
55172;SDS011;41061;52.822;6.860;2023-10-19T03:35:24;21.20;;;14.57;;
55172;SDS011;41061;52.822;6.860;2023-10-19T03:37:50;21.08;;;14.20;;
55172;SDS011;41061;52.822;6.860;2023-10-19T03:40:16;24.88;;;14.90;;
55172;SDS011;41061;52.822;6.860;2023-10-19T03:42:52;23.27;;;14.73;;
55172;SDS011;41061;52.822;6.860;2023-10-19T03:45:20;23.27;;;14.95;;
55172;SDS011;41061;52.822;6.860;2023-10-19T03:47:50;20.65;;;14.07;;
55172;SDS011;41061;52.822;6.860;2023-10-19T03:50:18;22.45;;;14.95;;
55172;SDS011;41061;52.822;6.860;2023-10-19T03:52:47;22.00;;;14.68;;
55172;SDS011;41061;52.822;6.860;2023-10-19T03:55:13;22.73;;;14.20;;
55172;SDS011;41061;52.822;6.860;2023-10-19T03:57:44;24.08;;;15.35;;
55172;SDS011;41061;52.822;6.860;2023-10-19T04:00:15;24.42;;;15.90;;
55172;SDS011;41061;52.822;6.860;2023-10-19T04:02:43;20.80;;;14.70;;
55172;SDS011;41061;52.822;6.860;2023-10-19T04:05:09;24.95;;;14.57;;
55172;SDS011;41061;52.822;6.860;2023-10-19T04:07:39;27.25;;;15.05;;
55172;SDS011;41061;52.822;6.860;2023-10-19T04:10:07;19.90;;;13.90;;
55172;SDS011;41061;52.822;6.860;2023-10-19T04:12:37;22.30;;;14.20;;
55172;SDS011;41061;52.822;6.860;2023-10-19T04:15:07;19.92;;;13.63;;
55172;SDS011;41061;52.822;6.860;2023-10-19T04:17:43;22.30;;;13.93;;
55172;SDS011;41061;52.822;6.860;2023-10-19T04:20:13;22.60;;;14.40;;
55172;SDS011;41061;52.822;6.860;2023-10-19T04:22:42;19.98;;;13.20;;
55172;SDS011;41061;52.822;6.860;2023-10-19T04:25:15;20.70;;;13.45;;
55172;SDS011;41061;52.822;6.860;2023-10-19T04:27:44;20.50;;;13.52;;
55172;SDS011;41061;52.822;6.860;2023-10-19T04:30:13;18.35;;;12.80;;
55172;SDS011;41061;52.822;6.860;2023-10-19T04:32:47;20.45;;;13.30;;
55172;SDS011;41061;52.822;6.860;2023-10-19T04:35:18;17.08;;;11.77;;
55172;SDS011;41061;52.822;6.860;2023-10-19T04:37:47;21.20;;;12.82;;
55172;SDS011;41061;52.822;6.860;2023-10-19T04:40:17;15.02;;;11.02;;
55172;SDS011;41061;52.822;6.860;2023-10-19T04:42:44;19.42;;;11.52;;
55172;SDS011;41061;52.822;6.860;2023-10-19T04:45:11;19.40;;;12.77;;
55172;SDS011;41061;52.822;6.860;2023-10-19T04:47:38;18.80;;;11.73;;
55172;SDS011;41061;52.822;6.860;2023-10-19T04:50:07;21.23;;;12.30;;
55172;SDS011;41061;52.822;6.860;2023-10-19T04:52:36;17.55;;;11.70;;
55172;SDS011;41061;52.822;6.860;2023-10-19T04:55:02;18.20;;;12.07;;
55172;SDS011;41061;52.822;6.860;2023-10-19T04:57:28;16.17;;;11.45;;
55172;SDS011;41061;52.822;6.860;2023-10-19T04:59:54;17.27;;;11.57;;
55172;SDS011;41061;52.822;6.860;2023-10-19T05:02:20;16.88;;;10.88;;
55172;SDS011;41061;52.822;6.860;2023-10-19T05:04:46;16.58;;;10.77;;
55172;SDS011;41061;52.822;6.860;2023-10-19T05:07:12;16.45;;;11.18;;
55172;SDS011;41061;52.822;6.860;2023-10-19T05:09:41;18.40;;;11.77;;
55172;SDS011;41061;52.822;6.860;2023-10-19T05:12:11;16.10;;;10.90;;
55172;SDS011;41061;52.822;6.860;2023-10-19T05:14:39;16.00;;;10.45;;
55172;SDS011;41061;52.822;6.860;2023-10-19T05:17:06;15.10;;;10.57;;
55172;SDS011;41061;52.822;6.860;2023-10-19T05:19:34;14.15;;;10.10;;
55172;SDS011;41061;52.822;6.860;2023-10-19T05:22:02;15.10;;;10.57;;
55172;SDS011;41061;52.822;6.860;2023-10-19T05:24:29;12.73;;;9.20;;
55172;SDS011;41061;52.822;6.860;2023-10-19T05:26:55;12.77;;;8.63;;
55172;SDS011;41061;52.822;6.860;2023-10-19T05:29:21;13.88;;;9.43;;
55172;SDS011;41061;52.822;6.860;2023-10-19T05:31:50;13.93;;;9.00;;
55172;SDS011;41061;52.822;6.860;2023-10-19T05:34:21;13.40;;;9.18;;
55172;SDS011;41061;52.822;6.860;2023-10-19T05:36:48;13.63;;;8.95;;
55172;SDS011;41061;52.822;6.860;2023-10-19T05:39:14;14.43;;;9.20;;
55172;SDS011;41061;52.822;6.860;2023-10-19T05:41:41;11.68;;;8.32;;
55172;SDS011;41061;52.822;6.860;2023-10-19T05:44:07;12.27;;;8.60;;
55172;SDS011;41061;52.822;6.860;2023-10-19T05:46:33;12.48;;;8.43;;
55172;SDS011;41061;52.822;6.860;2023-10-19T05:48:58;12.65;;;8.60;;
55172;SDS011;41061;52.822;6.860;2023-10-19T05:51:26;10.57;;;7.80;;
55172;SDS011;41061;52.822;6.860;2023-10-19T05:53:52;11.63;;;8.52;;
55172;SDS011;41061;52.822;6.860;2023-10-19T05:56:19;13.02;;;9.32;;
55172;SDS011;41061;52.822;6.860;2023-10-19T05:58:46;12.38;;;8.90;;
55172;SDS011;41061;52.822;6.860;2023-10-19T06:01:16;13.90;;;9.32;;
55172;SDS011;41061;52.822;6.860;2023-10-19T06:03:43;12.90;;;9.20;;
55172;SDS011;41061;52.822;6.860;2023-10-19T06:06:08;13.32;;;9.07;;
55172;SDS011;41061;52.822;6.860;2023-10-19T06:08:34;12.32;;;8.55;;
55172;SDS011;41061;52.822;6.860;2023-10-19T06:11:01;15.02;;;9.55;;
55172;SDS011;41061;52.822;6.860;2023-10-19T06:13:27;12.15;;;8.85;;
55172;SDS011;41061;52.822;6.860;2023-10-19T06:15:54;11.07;;;8.82;;
55172;SDS011;41061;52.822;6.860;2023-10-19T06:18:20;11.23;;;8.63;;
55172;SDS011;41061;52.822;6.860;2023-10-19T06:20:46;11.60;;;8.02;;
55172;SDS011;41061;52.822;6.860;2023-10-19T06:23:13;12.65;;;8.82;;
55172;SDS011;41061;52.822;6.860;2023-10-19T06:25:39;13.05;;;9.00;;
55172;SDS011;41061;52.822;6.860;2023-10-19T06:28:05;12.35;;;8.40;;
55172;SDS011;41061;52.822;6.860;2023-10-19T06:30:32;11.38;;;8.95;;
55172;SDS011;41061;52.822;6.860;2023-10-19T06:32:58;10.93;;;8.15;;
55172;SDS011;41061;52.822;6.860;2023-10-19T06:35:28;13.25;;;8.63;;
55172;SDS011;41061;52.822;6.860;2023-10-19T06:37:57;12.05;;;8.48;;
55172;SDS011;41061;52.822;6.860;2023-10-19T06:40:26;10.50;;;8.23;;
55172;SDS011;41061;52.822;6.860;2023-10-19T06:42:55;10.18;;;7.47;;
55172;SDS011;41061;52.822;6.860;2023-10-19T06:45:23;10.05;;;8.23;;
55172;SDS011;41061;52.822;6.860;2023-10-19T06:47:51;10.15;;;7.90;;
55172;SDS011;41061;52.822;6.860;2023-10-19T06:50:21;11.27;;;7.97;;
55172;SDS011;41061;52.822;6.860;2023-10-19T06:52:48;11.70;;;7.80;;
55172;SDS011;41061;52.822;6.860;2023-10-19T06:55:14;11.55;;;7.80;;
55172;SDS011;41061;52.822;6.860;2023-10-19T06:57:53;10.85;;;7.82;;
55172;SDS011;41061;52.822;6.860;2023-10-19T07:00:24;11.30;;;7.93;;
55172;SDS011;41061;52.822;6.860;2023-10-19T07:02:53;10.75;;;8.15;;
55172;SDS011;41061;52.822;6.860;2023-10-19T07:05:20;11.25;;;7.60;;
55172;SDS011;41061;52.822;6.860;2023-10-19T07:07:48;10.18;;;7.65;;
55172;SDS011;41061;52.822;6.860;2023-10-19T07:10:16;11.27;;;8.20;;
55172;SDS011;41061;52.822;6.860;2023-10-19T07:12:47;10.93;;;7.90;;
55172;SDS011;41061;52.822;6.860;2023-10-19T07:15:15;13.13;;;7.95;;
55172;SDS011;41061;52.822;6.860;2023-10-19T07:17:44;13.35;;;8.02;;
55172;SDS011;41061;52.822;6.860;2023-10-19T07:20:14;12.10;;;8.50;;
55172;SDS011;41061;52.822;6.860;2023-10-19T07:23:00;10.88;;;8.00;;
55172;SDS011;41061;52.822;6.860;2023-10-19T07:25:35;12.80;;;7.70;;
55172;SDS011;41061;52.822;6.860;2023-10-19T07:28:11;10.43;;;8.38;;
55172;SDS011;41061;52.822;6.860;2023-10-19T07:30:40;13.63;;;9.13;;
55172;SDS011;41061;52.822;6.860;2023-10-19T07:33:10;11.95;;;8.70;;
55172;SDS011;41061;52.822;6.860;2023-10-19T07:35:42;11.38;;;7.85;;
55172;SDS011;41061;52.822;6.860;2023-10-19T07:38:09;13.20;;;8.35;;
55172;SDS011;41061;52.822;6.860;2023-10-19T07:40:35;11.60;;;8.38;;
55172;SDS011;41061;52.822;6.860;2023-10-19T07:43:01;12.70;;;8.60;;
55172;SDS011;41061;52.822;6.860;2023-10-19T07:45:28;12.02;;;7.93;;
55172;SDS011;41061;52.822;6.860;2023-10-19T07:47:56;13.65;;;8.07;;
55172;SDS011;41061;52.822;6.860;2023-10-19T07:50:23;15.93;;;8.73;;
55172;SDS011;41061;52.822;6.860;2023-10-19T07:52:52;14.13;;;8.02;;
55172;SDS011;41061;52.822;6.860;2023-10-19T07:55:19;12.63;;;9.00;;
55172;SDS011;41061;52.822;6.860;2023-10-19T07:57:51;13.10;;;9.00;;
55172;SDS011;41061;52.822;6.860;2023-10-19T08:00:18;12.02;;;9.07;;
55172;SDS011;41061;52.822;6.860;2023-10-19T08:02:45;15.02;;;9.52;;
55172;SDS011;41061;52.822;6.860;2023-10-19T08:05:11;15.45;;;9.90;;
55172;SDS011;41061;52.822;6.860;2023-10-19T08:07:43;12.52;;;9.23;;
55172;SDS011;41061;52.822;6.860;2023-10-19T08:10:10;14.80;;;9.98;;
55172;SDS011;41061;52.822;6.860;2023-10-19T08:12:40;14.73;;;10.23;;
55172;SDS011;41061;52.822;6.860;2023-10-19T08:15:06;16.27;;;10.18;;
55172;SDS011;41061;52.822;6.860;2023-10-19T08:17:33;16.38;;;9.90;;
55172;SDS011;41061;52.822;6.860;2023-10-19T08:19:59;13.32;;;9.82;;
55172;SDS011;41061;52.822;6.860;2023-10-19T08:22:28;17.20;;;10.48;;
55172;SDS011;41061;52.822;6.860;2023-10-19T08:24:55;15.73;;;10.45;;
55172;SDS011;41061;52.822;6.860;2023-10-19T08:27:21;16.95;;;10.60;;
55172;SDS011;41061;52.822;6.860;2023-10-19T08:29:49;16.05;;;11.27;;
55172;SDS011;41061;52.822;6.860;2023-10-19T08:32:15;16.75;;;11.05;;
55172;SDS011;41061;52.822;6.860;2023-10-19T08:34:41;14.35;;;11.00;;
55172;SDS011;41061;52.822;6.860;2023-10-19T08:37:07;21.95;;;11.82;;
55172;SDS011;41061;52.822;6.860;2023-10-19T08:39:32;15.38;;;10.52;;
55172;SDS011;41061;52.822;6.860;2023-10-19T08:42:04;16.42;;;11.45;;
55172;SDS011;41061;52.822;6.860;2023-10-19T08:44:31;19.73;;;10.93;;
55172;SDS011;41061;52.822;6.860;2023-10-19T08:46:58;21.23;;;11.85;;
55172;SDS011;41061;52.822;6.860;2023-10-19T08:49:27;18.75;;;11.50;;
55172;SDS011;41061;52.822;6.860;2023-10-19T08:51:54;15.45;;;11.02;;
55172;SDS011;41061;52.822;6.860;2023-10-19T08:54:21;18.75;;;11.10;;
55172;SDS011;41061;52.822;6.860;2023-10-19T08:56:47;18.35;;;12.43;;
55172;SDS011;41061;52.822;6.860;2023-10-19T08:59:13;20.00;;;11.98;;
55172;SDS011;41061;52.822;6.860;2023-10-19T09:01:42;17.10;;;11.77;;
55172;SDS011;41061;52.822;6.860;2023-10-19T09:04:11;16.90;;;12.10;;
55172;SDS011;41061;52.822;6.860;2023-10-19T09:06:38;16.15;;;11.98;;
55172;SDS011;41061;52.822;6.860;2023-10-19T09:09:12;22.17;;;13.45;;
55172;SDS011;41061;52.822;6.860;2023-10-19T09:11:47;17.33;;;12.23;;
55172;SDS011;41061;52.822;6.860;2023-10-19T09:14:17;19.55;;;13.73;;
55172;SDS011;41061;52.822;6.860;2023-10-19T09:17:01;20.58;;;12.88;;
55172;SDS011;41061;52.822;6.860;2023-10-19T09:20:02;21.55;;;13.57;;
55172;SDS011;41061;52.822;6.860;2023-10-19T09:22:21;19.92;;;12.82;;
55172;SDS011;41061;52.822;6.860;2023-10-19T09:24:50;26.20;;;14.02;;
55172;SDS011;41061;52.822;6.860;2023-10-19T09:27:18;19.73;;;13.80;;
55172;SDS011;41061;52.822;6.860;2023-10-19T09:29:45;23.73;;;14.25;;
55172;SDS011;41061;52.822;6.860;2023-10-19T09:32:12;26.38;;;13.88;;
55172;SDS011;41061;52.822;6.860;2023-10-19T09:34:41;20.52;;;13.43;;
55172;SDS011;41061;52.822;6.860;2023-10-19T09:37:09;18.67;;;13.63;;
55172;SDS011;41061;52.822;6.860;2023-10-19T09:39:36;25.95;;;15.10;;
55172;SDS011;41061;52.822;6.860;2023-10-19T09:42:02;21.13;;;13.73;;
55172;SDS011;41061;52.822;6.860;2023-10-19T09:44:55;21.73;;;14.60;;
55172;SDS011;41061;52.822;6.860;2023-10-19T09:47:29;20.75;;;14.38;;
55172;SDS011;41061;52.822;6.860;2023-10-19T09:50:00;24.65;;;15.20;;
55172;SDS011;41061;52.822;6.860;2023-10-19T09:52:28;23.35;;;15.02;;
55172;SDS011;41061;52.822;6.860;2023-10-19T09:57:32;22.55;;;15.10;;
55172;SDS011;41061;52.822;6.860;2023-10-19T10:00:03;23.30;;;15.48;;
55172;SDS011;41061;52.822;6.860;2023-10-19T10:02:38;23.70;;;16.20;;
55172;SDS011;41061;52.822;6.860;2023-10-19T10:05:53;30.15;;;17.15;;
55172;SDS011;41061;52.822;6.860;2023-10-19T10:10:43;25.40;;;16.58;;
55172;SDS011;41061;52.822;6.860;2023-10-19T10:16:07;25.85;;;17.02;;
55172;SDS011;41061;52.822;6.860;2023-10-19T10:18:34;24.83;;;16.25;;
55172;SDS011;41061;52.822;6.860;2023-10-19T10:21:13;25.80;;;16.90;;
55172;SDS011;41061;52.822;6.860;2023-10-19T10:23:43;25.30;;;16.38;;
55172;SDS011;41061;52.822;6.860;2023-10-19T10:26:12;25.27;;;15.57;;
55172;SDS011;41061;52.822;6.860;2023-10-19T10:28:39;28.60;;;15.88;;
55172;SDS011;41061;52.822;6.860;2023-10-19T10:31:22;27.35;;;15.52;;
55172;SDS011;41061;52.822;6.860;2023-10-19T10:33:51;23.73;;;15.82;;
55172;SDS011;41061;52.822;6.860;2023-10-19T10:36:19;22.83;;;15.80;;
55172;SDS011;41061;52.822;6.860;2023-10-19T10:38:49;26.52;;;16.05;;
55172;SDS011;41061;52.822;6.860;2023-10-19T10:41:19;23.40;;;15.40;;
55172;SDS011;41061;52.822;6.860;2023-10-19T10:43:50;20.60;;;14.93;;
55172;SDS011;41061;52.822;6.860;2023-10-19T10:46:21;20.63;;;15.10;;
55172;SDS011;41061;52.822;6.860;2023-10-19T10:48:51;20.95;;;15.15;;
55172;SDS011;41061;52.822;6.860;2023-10-19T10:51:20;22.95;;;15.68;;
55172;SDS011;41061;52.822;6.860;2023-10-19T10:53:51;23.65;;;15.65;;
55172;SDS011;41061;52.822;6.860;2023-10-19T10:56:18;22.77;;;15.13;;
55172;SDS011;41061;52.822;6.860;2023-10-19T10:58:48;23.80;;;15.55;;
55172;SDS011;41061;52.822;6.860;2023-10-19T11:01:15;21.85;;;15.50;;
55172;SDS011;41061;52.822;6.860;2023-10-19T11:03:41;22.25;;;16.02;;
55172;SDS011;41061;52.822;6.860;2023-10-19T11:06:11;21.77;;;15.52;;
55172;SDS011;41061;52.822;6.860;2023-10-19T11:08:38;25.73;;;16.23;;
55172;SDS011;41061;52.822;6.860;2023-10-19T11:11:07;23.02;;;15.77;;
55172;SDS011;41061;52.822;6.860;2023-10-19T11:13:37;22.63;;;15.95;;
55172;SDS011;41061;52.822;6.860;2023-10-19T11:16:06;28.08;;;16.17;;
55172;SDS011;41061;52.822;6.860;2023-10-19T11:20:58;22.88;;;16.60;;
55172;SDS011;41061;52.822;6.860;2023-10-19T11:23:35;22.58;;;16.48;;
55172;SDS011;41061;52.822;6.860;2023-10-19T11:26:15;23.15;;;16.33;;
55172;SDS011;41061;52.822;6.860;2023-10-19T11:28:42;23.83;;;17.00;;
55172;SDS011;41061;52.822;6.860;2023-10-19T11:31:19;22.73;;;16.42;;
55172;SDS011;41061;52.822;6.860;2023-10-19T11:33:49;22.65;;;16.33;;
55172;SDS011;41061;52.822;6.860;2023-10-19T11:36:16;23.67;;;16.00;;
55172;SDS011;41061;52.822;6.860;2023-10-19T11:38:43;25.60;;;17.65;;
55172;SDS011;41061;52.822;6.860;2023-10-19T11:41:11;25.05;;;16.58;;
55172;SDS011;41061;52.822;6.860;2023-10-19T11:43:38;21.52;;;15.68;;
55172;SDS011;41061;52.822;6.860;2023-10-19T11:46:05;22.00;;;14.90;;
55172;SDS011;41061;52.822;6.860;2023-10-19T11:48:32;20.40;;;14.85;;
55172;SDS011;41061;52.822;6.860;2023-10-19T11:50:59;23.70;;;14.80;;
55172;SDS011;41061;52.822;6.860;2023-10-19T11:53:25;21.27;;;14.70;;
55172;SDS011;41061;52.822;6.860;2023-10-19T11:55:51;23.23;;;14.15;;
55172;SDS011;41061;52.822;6.860;2023-10-19T11:58:17;17.67;;;14.73;;
55172;SDS011;41061;52.822;6.860;2023-10-19T12:00:43;21.15;;;14.88;;
55172;SDS011;41061;52.822;6.860;2023-10-19T12:03:11;21.25;;;15.40;;
55172;SDS011;41061;52.822;6.860;2023-10-19T12:05:38;19.80;;;14.05;;
55172;SDS011;41061;52.822;6.860;2023-10-19T12:08:04;20.52;;;14.48;;
55172;SDS011;41061;52.822;6.860;2023-10-19T12:10:31;19.98;;;14.10;;
55172;SDS011;41061;52.822;6.860;2023-10-19T12:13:01;19.27;;;15.15;;
55172;SDS011;41061;52.822;6.860;2023-10-19T12:15:27;19.38;;;14.77;;
55172;SDS011;41061;52.822;6.860;2023-10-19T12:17:55;21.02;;;15.23;;
55172;SDS011;41061;52.822;6.860;2023-10-19T12:20:20;18.42;;;15.38;;
55172;SDS011;41061;52.822;6.860;2023-10-19T12:22:47;19.40;;;14.88;;
55172;SDS011;41061;52.822;6.860;2023-10-19T12:25:13;17.30;;;13.80;;
55172;SDS011;41061;52.822;6.860;2023-10-19T12:27:40;20.05;;;14.55;;
55172;SDS011;41061;52.822;6.860;2023-10-19T12:30:06;17.70;;;13.38;;
55172;SDS011;41061;52.822;6.860;2023-10-19T12:32:44;18.52;;;13.93;;
55172;SDS011;41061;52.822;6.860;2023-10-19T12:35:10;19.95;;;13.40;;
55172;SDS011;41061;52.822;6.860;2023-10-19T12:37:37;19.08;;;13.98;;
55172;SDS011;41061;52.822;6.860;2023-10-19T12:40:14;14.90;;;12.27;;
55172;SDS011;41061;52.822;6.860;2023-10-19T12:42:52;15.55;;;12.43;;
55172;SDS011;41061;52.822;6.860;2023-10-19T12:45:22;14.98;;;12.10;;
55172;SDS011;41061;52.822;6.860;2023-10-19T12:47:51;16.55;;;12.27;;
55172;SDS011;41061;52.822;6.860;2023-10-19T12:50:21;17.63;;;12.63;;
55172;SDS011;41061;52.822;6.860;2023-10-19T12:52:50;15.70;;;13.07;;
55172;SDS011;41061;52.822;6.860;2023-10-19T12:55:16;19.20;;;13.88;;
55172;SDS011;41061;52.822;6.860;2023-10-19T12:57:43;16.65;;;13.55;;
55172;SDS011;41061;52.822;6.860;2023-10-19T13:00:09;16.75;;;13.13;;
55172;SDS011;41061;52.822;6.860;2023-10-19T13:02:51;16.45;;;13.75;;
55172;SDS011;41061;52.822;6.860;2023-10-19T13:05:31;14.77;;;11.82;;
55172;SDS011;41061;52.822;6.860;2023-10-19T13:07:58;17.25;;;12.45;;
55172;SDS011;41061;52.822;6.860;2023-10-19T13:10:27;13.43;;;11.93;;
55172;SDS011;41061;52.822;6.860;2023-10-19T13:12:58;17.58;;;12.75;;
55172;SDS011;41061;52.822;6.860;2023-10-19T13:15:28;16.52;;;12.57;;
55172;SDS011;41061;52.822;6.860;2023-10-19T13:17:56;15.55;;;12.60;;
55172;SDS011;41061;52.822;6.860;2023-10-19T13:20:24;20.40;;;12.90;;
55172;SDS011;41061;52.822;6.860;2023-10-19T13:22:51;19.17;;;13.45;;
55172;SDS011;41061;52.822;6.860;2023-10-19T13:25:17;19.88;;;13.73;;
55172;SDS011;41061;52.822;6.860;2023-10-19T13:27:43;19.20;;;13.63;;
55172;SDS011;41061;52.822;6.860;2023-10-19T13:30:11;20.70;;;14.38;;
55172;SDS011;41061;52.822;6.860;2023-10-19T13:32:37;21.20;;;15.27;;
55172;SDS011;41061;52.822;6.860;2023-10-19T13:35:06;22.42;;;15.63;;
55172;SDS011;41061;52.822;6.860;2023-10-19T13:37:32;26.63;;;15.15;;
55172;SDS011;41061;52.822;6.860;2023-10-19T13:39:58;26.83;;;15.98;;
55172;SDS011;41061;52.822;6.860;2023-10-19T13:42:26;22.88;;;15.68;;
55172;SDS011;41061;52.822;6.860;2023-10-19T13:44:52;25.48;;;16.33;;
55172;SDS011;41061;52.822;6.860;2023-10-19T13:47:18;22.25;;;15.07;;
55172;SDS011;41061;52.822;6.860;2023-10-19T13:49:44;26.73;;;15.20;;
55172;SDS011;41061;52.822;6.860;2023-10-19T13:52:11;21.83;;;14.98;;
55172;SDS011;41061;52.822;6.860;2023-10-19T13:54:40;21.00;;;14.57;;
55172;SDS011;41061;52.822;6.860;2023-10-19T13:57:06;21.73;;;14.73;;
55172;SDS011;41061;52.822;6.860;2023-10-19T13:59:31;27.63;;;14.95;;
55172;SDS011;41061;52.822;6.860;2023-10-19T14:01:58;22.45;;;15.95;;
55172;SDS011;41061;52.822;6.860;2023-10-19T14:04:24;22.85;;;15.65;;
55172;SDS011;41061;52.822;6.860;2023-10-19T14:06:51;25.77;;;15.02;;
55172;SDS011;41061;52.822;6.860;2023-10-19T14:09:17;25.02;;;16.02;;
55172;SDS011;41061;52.822;6.860;2023-10-19T14:11:43;27.13;;;16.70;;
55172;SDS011;41061;52.822;6.860;2023-10-19T14:14:12;23.55;;;15.45;;
55172;SDS011;41061;52.822;6.860;2023-10-19T14:16:38;23.42;;;16.65;;
55172;SDS011;41061;52.822;6.860;2023-10-19T14:19:04;21.77;;;15.00;;
55172;SDS011;41061;52.822;6.860;2023-10-19T14:21:30;25.90;;;17.02;;
55172;SDS011;41061;52.822;6.860;2023-10-19T14:23:57;26.95;;;16.65;;
55172;SDS011;41061;52.822;6.860;2023-10-19T14:26:23;25.25;;;16.67;;
55172;SDS011;41061;52.822;6.860;2023-10-19T14:28:48;25.17;;;16.75;;
55172;SDS011;41061;52.822;6.860;2023-10-19T14:31:15;28.08;;;16.58;;
55172;SDS011;41061;52.822;6.860;2023-10-19T14:33:41;27.92;;;17.13;;
55172;SDS011;41061;52.822;6.860;2023-10-19T14:36:08;31.25;;;17.77;;
55172;SDS011;41061;52.822;6.860;2023-10-19T14:38:34;29.77;;;17.70;;
55172;SDS011;41061;52.822;6.860;2023-10-19T14:41:01;30.73;;;17.92;;
55172;SDS011;41061;52.822;6.860;2023-10-19T14:43:27;39.88;;;19.77;;
55172;SDS011;41061;52.822;6.860;2023-10-19T14:45:54;32.25;;;19.30;;
55172;SDS011;41061;52.822;6.860;2023-10-19T14:48:22;28.73;;;18.27;;
55172;SDS011;41061;52.822;6.860;2023-10-19T14:50:49;30.42;;;18.13;;